Metar Cercanos

 

LEPA - Palma De Mallorc, Spain
Distance from station: ONO 38km
Actualización: Wed, 12-May-2021 2:30pm CEST
Few Clouds
Few Clouds
 Viento del OSO
Viento: OSO 31 km/h
Temperatura: 23°C
Rocío: 11°C
Humedad: 47%
Barómetro: 1014 hPa
Clouds: Few Clouds
Visibility: 10 km
Cloud details: Few Clouds 853 m
2021/05/12 12:30 LEPA 121230Z 24017KT 210V270 9999 FEW028 23/11 Q1014 NOSIG
LEMH - Mahon/Menorca Is, Spain
Distance from station: ENE 105km
Actualización: Wed, 12-May-2021 2:30pm CEST
Few Clouds
Few Clouds
 Viento del SO
Viento: SO 35 km/h
Temperatura: 20°C
Rocío: 15°C
Humedad: 73%
Barómetro: 1014 hPa
Clouds: Few Clouds
Visibility: 10 km
Cloud details: Few Clouds 457 m
2021/05/12 12:30 LEMH 121230Z 22019KT 190V250 9999 FEW015 20/15 Q1014
 
LEIB - Ibiza/Es Codola, Spain
Distance from station: OSO 165km
Actualización: Wed, 12-May-2021 2:30pm CEST
Despejado
Despejado
 Viento del SO
Viento: SO 22 km/h
Temperatura: 21°C
Rocío: 15°C
Humedad: 69%
Barómetro: 1016 hPa
Resumen: Despejado
Visibility: greater than 10 km
2021/05/12 12:30 LEIB 121230Z 23012KT 190V260 CAVOK 21/15 Q1016 NOSIG
LEBL - Barcelona Airpor, Spain
Distance from station: NNO 225km
Actualización: Wed, 12-May-2021 2:30pm CEST
Few Clouds
Few Clouds
 Viento del S
Viento: S 9 km/h, Racha: 31 km/h
Temperatura: 21°C
Rocío: 9°C
Humedad: 46%
Barómetro: 1012 hPa
Clouds: Few Clouds
Visibility: 10 km
Cloud details: Few Clouds 1219 m
2021/05/12 12:30 LEBL 121230Z 17005G17KT 9999 FEW040 21/09 Q1012 NOSIG
 
LEVC - Valencia (civ/Mi, Spain
Distance from station: NO 188km
Actualización: Wed, 12-May-2021 2:30pm CEST
Few Clouds
Few Clouds
 Viento del O
Viento: O 31 km/h
Temperatura: 25°C
Rocío: 7°C
Humedad: 32%
Barómetro: 1015 hPa
Clouds: Few Clouds
Visibility: 10 km
Cloud details: Few Clouds 1067 m
2021/05/12 12:30 LEVC 121230Z 28017KT 9999 FEW035 25/07 Q1015 NOSIG
LEGE - Gerona/Costa Bra, Spain
Distance from station: N 276km
Actualización: Wed, 12-May-2021 2:30pm CEST
Few Clouds
Few Clouds
 Viento del OSO
Viento: OSO 22 km/h
Temperatura: 22°C
Rocío: 6°C
Humedad: 36%
Barómetro: 1010 hPa
Clouds: Few Clouds
Visibility: 10 km
Cloud details: Few Clouds 2438 m
2021/05/12 12:30 LEGE 121230Z 24012KT 190V300 9999 FEW080 22/06 Q1010
 
LEAL - Alicante/El Alte, Spain
Distance from station: OSO 344km
Actualización: Wed, 12-May-2021 2:30pm CEST
Despejado
Despejado
 Viento del S
Viento: S 22 km/h
Temperatura: 24°C
Rocío: 8°C
Humedad: 36%
Barómetro: 1016 hPa
Resumen: Despejado
Visibility: greater than 10 km
2021/05/12 12:30 LEAL 121230Z 17012KT 130V230 CAVOK 24/08 Q1016 NOSIG
LEAM - Almeria Airport, Spain
Distance from station: SSO 56km
Actualización: Wed, 12-May-2021 2:30pm CEST
Despejado
Despejado
 Viento del SSO
Viento: SSO 28 km/h
Resumen: Despejado
Visibility: greater than 10 km
2021/05/12 12:30 LEAM 121230Z 21015KT 180V240 CAVOK 20/1
 
LEZG - Zaragoza (mil/Ci, Spain
Distance from station: NO 431km
Actualización: Wed, 12-May-2021 2:30pm CEST
Parcialmente nuboso
Parcialmente nuboso
 Viento del OSO
Viento: OSO 39 km/h
Temperatura: 22°C
Rocío: 5°C
Humedad: 33%
Barómetro: 1013 hPa
Clouds: Parcialmente nuboso
Visibility: 10 km
Cloud details: Parcialmente nuboso 1829 m
2021/05/12 12:30 LEZG 121230Z 25021KT 9999 SCT060 22/05 Q1013
LEMD - Madrid/Barajas, Spain
Distance from station: ONO 234km
Actualización: Wed, 12-May-2021 2:30pm CEST
Parcialmente nuboso
Parcialmente nuboso
 Viento del SSO
Viento: SSO 20 km/h
Temperatura: 18°C
Rocío: 7°C
Humedad: 49%
Barómetro: 1017 hPa
Clouds: Parcialmente nuboso
Visibility: 10 km
Cloud details: Few Clouds 1402 m
Parcialmente nuboso 2134 m
2021/05/12 12:30 LEMD 121230Z 21011KT 160V240 9999 FEW046 SCT070 18/07 Q1017 NOSIG
 
LEGR - Granada Airport, Spain
Distance from station: OSO 62km
Actualización: Wed, 12-May-2021 2:30pm CEST
Few Clouds
Few Clouds
 Viento del varies
Viento: varies 2 km/h
Temperatura: 23°C
Rocío: 7°C
Humedad: 36%
Barómetro: 1020 hPa
Clouds: Few Clouds
Visibility: 10 km
Cloud details: Few Clouds 1524 m
2021/05/12 12:30 LEGR 121230Z VRB01KT 9999 FEW050 23/07 Q1020
LEMG - Malaga (civ/Mil), Spain
Distance from station: OSO 227km
Actualización: Wed, 12-May-2021 2:30pm CEST
Despejado
Despejado
 Viento del NO
Viento: NO 13 km/h
Temperatura: 27°C
Rocío: 8°C
Humedad: 30%
Barómetro: 1018 hPa
Resumen: Despejado
Visibility: greater than 10 km
2021/05/12 12:30 LEMG 121230Z 31007KT 260V350 CAVOK 27/08 Q1018 NOSIG
 
LEZL - Sevilla (civ/Mil, Spain
Distance from station: S 318km
Actualización: Wed, 12-May-2021 2:30pm CEST
Few Clouds
Few Clouds
 Viento del OSO
Viento: OSO 11 km/h
Temperatura: 22°C
Rocío: 11°C
Humedad: 50%
Barómetro: 1020 hPa
Clouds: Few Clouds
Visibility: 10 km
Cloud details: Few Clouds 1372 m
2021/05/12 12:30 LEZL 121230Z 25006KT 200V290 9999 FEW045 22/11 Q1020 NOSIG
LEVT - Vitoria, Spain
Distance from station: NO 226km
Actualización: Wed, 12-May-2021 2:30pm CEST
Lluvia débil, Showers, Muy nuboso
Lluvia débil, Showers, Muy nuboso
 Viento del NO
Viento: NO 28 km/h, Racha: 46 km/h
Temperatura: 12°C
Rocío: 10°C
Humedad: 88%
Barómetro: 1014 hPa
Resumen: Lluvia débil, Showers
Clouds: Muy nuboso
Visibility: 9 km
Cloud details: Parcialmente nuboso 792 m
Muy nuboso 1219 m
2021/05/12 12:30 LEVT 121230Z 31015G25KT 9000 -SHRA SCT026 BKN040TCU 12/10 Q1014
 
LEBB - Bilbao/Sondica, Spain
Distance from station: NNO 235km
Actualización: Wed, 12-May-2021 2:30pm CEST
Muy nuboso
Muy nuboso
 Viento del ONO
Viento: ONO 37 km/h, Racha: 56 km/h
Temperatura: 15°C
Rocío: 11°C
Humedad: 77%
Barómetro: 1015 hPa
Clouds: Muy nuboso
Visibility: 10 km
Cloud details: Parcialmente nuboso 792 m
Muy nuboso 1524 m
2021/05/12 12:30 LEBB 121230Z 29020G30KT 250V320 9999 SCT026 BKN050 15/11 Q1015 TEMPO 3000 RA BKN010
LESO - San Sebastian/Fu, Spain
Distance from station: N 231km
Actualización: Wed, 12-May-2021 2:30pm CEST
Muy nuboso
Muy nuboso
 Viento del ONO
Viento: ONO 31 km/h, Racha: 57 km/h
Temperatura: 16°C
Rocío: 12°C
Humedad: 77%
Barómetro: 1014 hPa
Clouds: Muy nuboso
Visibility: 10 km
Cloud details: Few Clouds 488 m
Parcialmente nuboso 823 m
Muy nuboso 1829 m
2021/05/12 12:30 LESO 121230Z 29017G31KT 230V340 9999 FEW016 SCT027 BKN060 16/12 Q1014
 
LEVD - Valladolid(Mil/C, Spain
Distance from station: ONO 239km
Actualización: Wed, 12-May-2021 2:30pm CEST
Muy nuboso
Muy nuboso
 Viento del O
Viento: O 39 km/h, Racha: 59 km/h
Temperatura: 16°C
Rocío: 7°C
Humedad: 55%
Barómetro: 1016 hPa
Clouds: Muy nuboso
Visibility: 10 km
Cloud details: Parcialmente nuboso 1219 m
Muy nuboso 1463 m
2021/05/12 12:30 LEVD 121230Z 26021G32KT 9999 SCT040 BKN048 16/07 Q1016
LESA - Salamanca (civ/M, Spain
Distance from station: ONO 349km
Actualización: Wed, 12-May-2021 2:30pm CEST
Parcialmente nuboso
Parcialmente nuboso
 Viento del O
Viento: O 37 km/h, Racha: 56 km/h
Temperatura: 16°C
Rocío: 4°C
Humedad: 45%
Barómetro: 1019 hPa
Clouds: Parcialmente nuboso
Visibility: 10 km
Cloud details: Parcialmente nuboso 1372 m
2021/05/12 12:30 LESA 121230Z 28020G30KT 250V310 9999 SCT045 16/04 Q1019
 
LEXJ - Santander/Paraya, Spain
Distance from station: NNO 247km
Actualización: Wed, 12-May-2021 2:30pm CEST
Muy nuboso
Muy nuboso
 Viento del ONO
Viento: ONO 44 km/h, Racha: 63 km/h
Temperatura: 13°C
Rocío: 11°C
Humedad: 88%
Barómetro: 1015 hPa
Clouds: Muy nuboso
Visibility: 10 km
Cloud details: Few Clouds 518 m
Parcialmente nuboso 701 m
Muy nuboso 1067 m
2021/05/12 12:30 LEXJ 121230Z 30024G34KT 270V340 9999 FEW017 SCT023 BKN035 13/11 Q1015
LEAS - Asturias/Aviles, Spain
Distance from station: NO 214km
Actualización: Wed, 12-May-2021 2:30pm CEST
Parcialmente nuboso
Parcialmente nuboso
 Viento del ONO
Viento: ONO 43 km/h, Racha: 63 km/h
Temperatura: 14°C
Rocío: 9°C
Humedad: 72%
Barómetro: 1016 hPa
Clouds: Parcialmente nuboso
Visibility: 10 km
Cloud details: Few Clouds 305 m
Parcialmente nuboso 914 m
2021/05/12 12:30 LEAS 121230Z 30023G34KT 9999 FEW010 SCT030 14/09 Q1016 NOSIG
 
LECO - La Coruna/Alvedr, Spain
Distance from station: ONO 222km
Actualización: Wed, 12-May-2021 2:30pm CEST
Parcialmente nuboso
Parcialmente nuboso
 Viento del O
Viento: O 17 km/h
Temperatura: 14°C
Rocío: 8°C
Humedad: 67%
Barómetro: 1019 hPa
Clouds: Parcialmente nuboso
Visibility: 10 km
Cloud details: Few Clouds 1006 m
Parcialmente nuboso 1311 m
2021/05/12 12:30 LECO 121230Z 28009KT 240V320 9999 FEW033 SCT043 14/08 Q1019
LEVX - Vigo/Peinador, Spain
Distance from station: O 214km
Actualización: Wed, 12-May-2021 2:30pm CEST
Muy nuboso
Muy nuboso
 Viento del ONO
Viento: ONO 20 km/h
Temperatura: 14°C
Rocío: 7°C
Humedad: 63%
Barómetro: 1020 hPa
Clouds: Muy nuboso
Visibility: 10 km
Cloud details: Muy nuboso 1067 m
2021/05/12 12:30 LEVX 121230Z 29011KT 230V340 9999 BKN035 14/07 Q1020 NOSIG